Time;durP1;ratioP1;P1;durP2;ratioP2;P2;SDS_P1;SDS_P2;PMS_P1;PMS_P2;Temp;Humidity;BMP_temperature;BMP_pressure;BME280_temperature;BME280_humidity;BME280_pressure;Samples;Min_cycle;Max_cycle;Signal;HPM_P1;HPM_P2
2022/10/31 00:02:23;;;;;;;24.77;13.50;;;;;;;10.72;100.00;101934.34;4971150;28;20252;-75
2022/10/31 00:04:48;;;;;;;18.30;13.23;;;;;;;10.70;100.00;101929.97;4970569;28;20216;-75
2022/10/31 00:07:13;;;;;;;17.93;12.90;;;;;;;10.70;100.00;101941.06;4972308;28;20227;-75
2022/10/31 00:09:39;;;;;;;14.47;12.17;;;;;;;10.64;100.00;101948.53;4968700;28;20256;-74
2022/10/31 00:12:04;;;;;;;17.27;11.93;;;;;;;10.66;99.59;101946.03;4970634;28;20208;-74
2022/10/31 00:14:30;;;;;;;17.63;12.50;;;;;;;10.61;99.21;101945.00;4971184;28;20200;-74
2022/10/31 00:16:55;;;;;;;20.13;12.57;;;;;;;10.60;99.05;101948.38;4970079;28;20215;-74
2022/10/31 00:19:21;;;;;;;23.43;12.80;;;;;;;10.55;98.60;101944.78;4970731;28;20670;-74
2022/10/31 00:21:46;;;;;;;19.97;12.13;;;;;;;10.55;98.99;101940.53;4972549;28;20196;-75
2022/10/31 00:24:12;;;;;;;28.17;12.90;;;;;;;10.57;99.14;101953.38;4966518;28;20188;-74
2022/10/31 00:26:37;;;;;;;19.23;11.60;;;;;;;10.55;99.33;101953.31;4971190;28;20247;-75
2022/10/31 00:29:03;;;;;;;24.70;12.27;;;;;;;10.53;99.76;101964.31;4970207;28;20196;-74
2022/10/31 00:31:29;;;;;;;18.37;12.60;;;;;;;10.54;100.00;101960.94;4966579;28;20197;-74
2022/10/31 00:33:55;;;;;;;23.40;11.90;;;;;;;10.48;100.00;101961.63;4984904;28;20606;-76
2022/10/31 00:36:20;;;;;;;18.20;12.50;;;;;;;10.51;100.00;101953.16;4966562;28;20238;-75
2022/10/31 00:38:47;;;;;;;23.53;13.40;;;;;;;10.43;100.00;101945.19;4970594;28;20196;-75
2022/10/31 00:41:15;;;;;;;19.03;13.00;;;;;;;10.47;100.00;101947.03;4969790;28;20582;-75
2022/10/31 00:43:41;;;;;;;18.07;12.70;;;;;;;10.48;100.00;101956.50;4963990;28;20220;-76
2022/10/31 00:46:07;;;;;;;20.90;12.03;;;;;;;10.48;100.00;101956.50;4952241;28;20679;-76
2022/10/31 00:48:33;;;;;;;21.33;13.07;;;;;;;10.41;100.00;101957.06;4967537;28;20195;-76
2022/10/31 00:50:59;;;;;;;17.10;12.20;;;;;;;10.42;100.00;101953.69;4967443;28;20258;-76
2022/10/31 00:53:24;;;;;;;16.53;11.77;;;;;;;10.38;100.00;101956.97;4969357;28;20216;-76
2022/10/31 00:55:51;;;;;;;14.63;11.10;;;;;;;10.41;100.00;101954.50;4962593;28;20204;-76
2022/10/31 00:58:16;;;;;;;11.70;10.60;;;;;;;10.45;100.00;101958.94;4981685;28;20196;-76
2022/10/31 01:00:43;;;;;;;12.07;10.40;;;;;;;10.42;100.00;101953.69;4965576;28;20197;-75
2022/10/31 01:03:08;;;;;;;13.03;10.10;;;;;;;10.35;100.00;101961.97;4969506;28;20212;-76
2022/10/31 01:05:37;;;;;;;11.03;9.77;;;;;;;10.42;100.00;101958.78;4967741;28;20884;-75
2022/10/31 01:08:03;;;;;;;10.80;9.63;;;;;;;10.40;99.97;101962.13;4964336;28;20319;-75
2022/10/31 01:10:28;;;;;;;10.13;9.17;;;;;;;10.38;99.71;101962.09;4966182;28;20255;-75
2022/10/31 01:12:53;;;;;;;13.53;10.57;;;;;;;10.44;100.00;101962.31;4968285;28;20223;-75
2022/10/31 01:15:22;;;;;;;10.97;9.97;;;;;;;10.37;100.00;101960.31;4963004;28;20285;-75
2022/10/31 01:17:48;;;;;;;10.23;9.23;;;;;;;10.40;100.00;101955.31;4969226;28;20192;-75
2022/10/31 01:20:15;;;;;;;13.37;11.07;;;;;;;10.44;99.98;101952.06;4969770;28;20216;-76
2022/10/31 01:22:40;;;;;;;19.83;12.33;;;;;;;10.41;100.00;101958.75;4964705;28;20243;-75
2022/10/31 01:25:07;;;;;;;13.90;11.00;;;;;;;10.34;100.00;101964.44;4967836;28;20282;-75
2022/10/31 01:27:33;;;;;;;12.10;10.90;;;;;;;10.28;100.00;101970.19;4965430;28;20239;-75
2022/10/31 01:29:59;;;;;;;12.47;11.27;;;;;;;10.24;100.00;101972.59;4965257;28;20221;-75
2022/10/31 01:32:24;;;;;;;13.43;12.03;;;;;;;10.19;100.00;101974.09;4969218;28;20606;-76
2022/10/31 01:34:50;;;;;;;16.23;12.37;;;;;;;10.21;100.00;101975.91;4965668;28;20192;-77
2022/10/31 01:37:15;;;;;;;14.63;12.90;;;;;;;10.20;100.00;101988.66;4969257;28;20192;-76
2022/10/31 01:39:41;;;;;;;13.60;12.20;;;;;;;10.17;99.82;101986.84;4964302;28;20565;-75
2022/10/31 01:42:06;;;;;;;13.10;11.87;;;;;;;10.19;99.71;101992.88;4969241;28;20656;-76
2022/10/31 01:44:32;;;;;;;12.13;10.63;;;;;;;10.17;99.98;101989.41;4968918;28;20200;-76
2022/10/31 01:47:15;;;;;;;16.10;11.93;;;;;;;10.11;99.46;101989.16;4966254;28;20276;-76
2022/10/31 01:49:52;;;;;;;12.33;11.13;;;;;;;10.10;99.62;101999.34;4968730;28;20686;-76
2022/10/31 01:52:26;;;;;;;11.80;10.00;;;;;;;10.11;99.79;101988.28;4967848;28;20216;-76
2022/10/31 01:54:59;;;;;;;11.77;10.43;;;;;;;10.08;99.06;102001.84;4968766;28;20184;-76
2022/10/31 01:57:26;;;;;;;13.90;9.93;;;;;;;10.05;98.85;102000.84;4983332;28;20587;-76
2022/10/31 01:59:56;;;;;;;10.63;9.63;;;;;;;10.06;98.71;102008.59;4967209;28;20189;-76
2022/10/31 02:02:23;;;;;;;11.87;10.00;;;;;;;10.05;98.96;102006.81;4969125;28;20744;-76
2022/10/31 02:04:49;;;;;;;10.70;9.70;;;;;;;10.05;98.65;102006.81;4968302;28;20247;-76
2022/10/31 02:07:25;;;;;;;11.73;9.77;;;;;;;9.99;98.83;102014.22;4968478;28;20574;-76
2022/10/31 02:09:52;;;;;;;10.17;9.13;;;;;;;10.03;98.78;102012.66;4968665;28;20223;-76
2022/10/31 02:12:18;;;;;;;10.67;9.00;;;;;;;9.99;99.23;102011.66;4968688;28;20274;-76
2022/10/31 02:14:44;;;;;;;9.20;8.27;;;;;;;10.03;99.37;102015.22;4968623;28;20243;-76
2022/10/31 02:17:10;;;;;;;12.80;8.83;;;;;;;10.07;99.36;102022.25;4956564;28;20188;-76
2022/10/31 02:19:44;;;;;;;10.73;8.73;;;;;;;10.04;99.34;102015.31;4968680;28;20204;-76
2022/10/31 02:22:17;;;;;;;13.70;9.10;;;;;;;10.09;99.14;102018.06;4981824;28;20721;-76
2022/10/31 02:24:56;;;;;;;10.20;9.07;;;;;;;10.06;99.86;102018.81;4965207;28;20215;-75
2022/10/31 02:27:51;;;;;;;9.17;8.20;;;;;;;10.04;100.00;102023.00;4968324;28;20203;-76
2022/10/31 02:30:23;;;;;;;9.30;8.13;;;;;;;10.05;99.95;102021.31;4966556;28;20212;-76
2022/10/31 02:33:19;;;;;;;8.90;8.00;;;;;;;10.02;99.59;102023.72;4968857;28;20220;-76
2022/10/31 02:36:10;;;;;;;8.87;7.97;;;;;;;9.94;100.00;102022.50;4964998;28;20203;-76
2022/10/31 02:38:47;;;;;;;9.07;8.13;;;;;;;9.91;99.36;102025.81;4966955;28;20192;-77
2022/10/31 02:41:38;;;;;;;8.53;7.57;;;;;;;9.85;99.17;102032.38;4967496;28;20610;-77
2022/10/31 02:44:20;;;;;;;8.57;7.33;;;;;;;9.89;99.48;102040.25;4970806;28;20197;-75
2022/10/31 02:46:55;;;;;;;7.67;6.63;;;;;;;9.84;99.13;102038.31;4972331;28;20210;-76
2022/10/31 02:49:27;;;;;;;8.20;7.30;;;;;;;9.83;98.73;102028.88;4971611;28;20212;-75
2022/10/31 02:51:53;;;;;;;8.40;7.60;;;;;;;9.81;98.64;102040.75;4969107;28;20242;-75
2022/10/31 02:54:23;;;;;;;7.77;7.17;;;;;;;9.75;98.96;102028.56;4969216;28;20594;-76
2022/10/31 02:56:56;;;;;;;7.67;6.97;;;;;;;9.79;98.43;102032.13;4954076;28;20191;-75
2022/10/31 02:59:23;;;;;;;7.67;6.77;;;;;;;9.83;98.44;102040.00;4966652;28;20188;-75
2022/10/31 03:02:07;;;;;;;8.50;7.53;;;;;;;9.84;98.50;102051.97;4964812;28;20188;-75
2022/10/31 03:04:50;;;;;;;7.83;7.13;;;;;;;9.90;98.80;102048.81;4966112;28;20196;-75
2022/10/31 03:07:57;;;;;;;9.57;7.73;;;;;;;9.94;99.37;102061.78;4967202;28;20203;-75
2022/10/31 03:10:38;;;;;;;7.37;6.60;;;;;;;10.00;99.17;102051.78;4965109;28;20224;-75
2022/10/31 03:13:51;;;;;;;8.23;7.43;;;;;;;10.07;99.74;102058.94;4971585;28;20212;-75
2022/10/31 03:16:46;;;;;;;10.30;8.07;;;;;;;10.13;100.00;102060.91;4985024;28;20247;-75
2022/10/31 03:19:16;;;;;;;9.00;8.10;;;;;;;10.12;100.00;102059.13;4984183;28;20220;-75
2022/10/31 03:21:50;;;;;;;8.23;7.43;;;;;;;10.08;100.00;102057.25;4947355;28;20256;-75
2022/10/31 03:24:16;;;;;;;9.57;8.17;;;;;;;10.03;100.00;102057.03;4971143;28;20208;-76
2022/10/31 03:26:46;;;;;;;8.23;7.53;;;;;;;10.03;100.00;102066.38;4970215;28;20239;-76
2022/10/31 03:29:16;;;;;;;8.50;7.60;;;;;;;10.00;100.00;102064.59;4967959;28;20211;-77
2022/10/31 03:32:01;;;;;;;7.97;7.13;;;;;;;9.98;100.00;102063.66;4970266;28;20577;-76
2022/10/31 03:34:30;;;;;;;10.27;7.73;;;;;;;9.98;100.00;102071.34;4967000;28;20189;-76
2022/10/31 03:37:01;;;;;;;9.43;8.53;;;;;;;9.97;100.00;102074.72;4960181;28;20196;-76
2022/10/31 03:39:28;;;;;;;9.40;7.53;;;;;;;9.95;100.00;102084.00;4965821;28;20738;-76
2022/10/31 03:42:10;;;;;;;9.63;8.67;;;;;;;9.93;100.00;102080.50;4958291;28;20566;-77
2022/10/31 03:44:37;;;;;;;8.73;7.93;;;;;;;9.90;99.80;102088.03;4966708;28;20196;-75
2022/10/31 03:47:04;;;;;;;10.53;7.50;;;;;;;9.90;100.00;102092.31;4956344;28;20196;-76
2022/10/31 03:49:30;;;;;;;10.93;7.57;;;;;;;9.92;100.00;102085.56;4968309;28;20209;-76
2022/10/31 03:52:06;;;;;;;8.93;8.03;;;;;;;9.95;99.49;102088.25;4960611;28;20200;-75
2022/10/31 03:54:40;;;;;;;11.43;7.77;;;;;;;9.94;99.92;102087.38;4972630;28;20280;-75
2022/10/31 03:57:23;;;;;;;9.60;7.90;;;;;;;10.00;100.00;102095.28;4969165;28;20195;-76
2022/10/31 04:00:02;;;;;;;8.83;7.93;;;;;;;9.99;100.00;102105.44;4966227;28;20548;-75
2022/10/31 04:02:32;;;;;;;8.90;7.90;;;;;;;10.02;100.00;102109.03;4963743;28;20213;-75
2022/10/31 04:04:58;;;;;;;13.03;8.80;;;;;;;9.99;100.00;102113.13;4967939;28;20189;-75
2022/10/31 04:07:28;;;;;;;12.87;8.20;;;;;;;9.98;100.00;102108.81;4969258;28;20209;-75
2022/10/31 04:09:54;;;;;;;8.17;7.37;;;;;;;9.95;100.00;102111.28;4968954;28;20235;-75
2022/10/31 04:12:24;;;;;;;12.73;7.93;;;;;;;9.93;100.00;102116.31;4970545;28;20758;-75
2022/10/31 04:15:19;;;;;;;16.50;12.03;;;;;;;9.91;100.00;102111.97;4964143;28;20204;-75
2022/10/31 04:17:49;;;;;;;13.40;10.37;;;;;;;9.90;100.00;102115.31;4967650;28;20645;-74
2022/10/31 04:20:17;;;;;;;11.03;8.60;;;;;;;9.90;100.00;102123.00;4968542;28;20313;-74
2022/10/31 04:22:43;;;;;;;9.87;7.73;;;;;;;9.90;100.00;102123.00;4954492;28;20212;-74
2022/10/31 04:25:08;;;;;;;11.67;9.17;;;;;;;9.88;100.00;102120.38;4971170;28;20196;-74
2022/10/31 04:27:36;;;;;;;11.43;9.17;;;;;;;9.87;100.00;102115.19;4965484;28;20193;-74
2022/10/31 04:30:01;;;;;;;10.40;8.40;;;;;;;9.81;100.00;102108.13;4969188;28;20216;-74
2022/10/31 04:32:30;;;;;;;13.23;8.97;;;;;;;9.82;100.00;102112.41;4948504;28;20215;-76
2022/10/31 04:34:55;;;;;;;14.97;9.80;;;;;;;9.79;100.00;102114.88;4965873;28;20577;-75
2022/10/31 04:37:20;;;;;;;10.47;9.27;;;;;;;9.77;100.00;102121.59;4969858;28;20192;-75
2022/10/31 04:39:47;;;;;;;12.57;10.37;;;;;;;9.73;100.00;102122.25;4967303;28;20181;-75
2022/10/31 04:42:47;;;;;;;14.27;10.00;;;;;;;9.73;100.00;102129.06;4968452;28;20220;-75
2022/10/31 04:45:13;;;;;;;13.80;9.53;;;;;;;9.72;99.86;102125.63;4969729;28;20195;-75
2022/10/31 04:47:40;;;;;;;19.77;11.30;;;;;;;9.73;99.97;102117.13;4966059;28;20657;-75
2022/10/31 04:50:06;;;;;;;17.80;10.40;;;;;;;9.72;100.00;102122.22;4969579;28;20215;-75
2022/10/31 04:52:41;;;;;;;17.50;10.50;;;;;;;9.71;100.00;102139.22;4968948;28;20292;-75
2022/10/31 04:55:09;;;;;;;24.20;12.50;;;;;;;9.72;100.00;102132.44;4980827;28;20672;-75
2022/10/31 04:57:53;;;;;;;23.57;12.07;;;;;;;9.72;100.00;102127.34;4971003;28;20530;-75
2022/10/31 05:00:21;;;;;;;25.97;12.53;;;;;;;9.72;100.00;102135.84;4970605;28;20279;-75
2022/10/31 05:02:51;;;;;;;23.90;13.20;;;;;;;9.72;100.00;102132.44;4969371;28;20255;-75
2022/10/31 05:05:18;;;;;;;30.50;14.40;;;;;;;9.77;100.00;102131.81;4968419;28;20193;-75
2022/10/31 05:07:46;;;;;;;25.90;14.23;;;;;;;9.76;100.00;102124.94;4973068;28;20279;-75
2022/10/31 05:10:16;;;;;;;32.03;15.03;;;;;;;9.80;100.00;102129.41;4969635;28;20226;-75
2022/10/31 05:12:48;;;;;;;29.53;14.83;;;;;;;9.81;100.00;102128.59;4982722;28;20207;-75
2022/10/31 05:15:33;;;;;;;30.23;16.07;;;;;;;9.82;100.00;102145.66;4970720;28;20213;-76
2022/10/31 05:18:10;;;;;;;42.27;17.53;;;;;;;9.87;100.00;102133.94;4967413;28;20200;-75
2022/10/31 05:20:59;;;;;;;44.47;17.40;;;;;;;9.92;100.00;102134.16;4969792;28;20204;-75
2022/10/31 05:23:33;;;;;;;42.90;17.17;;;;;;;9.95;100.00;102136.88;4968659;28;20226;-75
2022/10/31 05:25:58;;;;;;;41.67;18.80;;;;;;;9.97;100.00;102138.69;4969037;28;20189;-75
2022/10/31 05:28:24;;;;;;;37.97;18.67;;;;;;;10.01;100.00;102139.66;4967641;28;20823;-75
2022/10/31 05:30:50;;;;;;;44.73;19.03;;;;;;;10.04;100.00;102150.03;4953263;28;20232;-74
2022/10/31 05:33:15;;;;;;;48.17;19.83;;;;;;;10.10;100.00;102142.66;4965991;28;20227;-75
2022/10/31 05:35:59;;;;;;;48.77;21.40;;;;;;;10.18;100.00;102144.72;4968800;28;20326;-75
2022/10/31 05:38:32;;;;;;;62.67;24.80;;;;;;;10.24;100.00;102147.56;4968771;28;20191;-75
2022/10/31 05:41:05;;;;;;;67.13;26.43;;;;;;;10.31;100.00;102141.84;4953890;28;20291;-75
2022/10/31 05:43:32;;;;;;;76.33;28.73;;;;;;;10.36;100.00;102135.22;4985456;28;20212;-74
2022/10/31 05:45:58;;;;;;;72.50;30.20;;;;;;;10.41;100.00;102130.31;4967651;28;20275;-75
2022/10/31 05:48:49;;;;;;;73.60;29.93;;;;;;;10.45;100.00;102124.47;4969064;28;20193;-75
2022/10/31 05:51:27;;;;;;;77.33;31.77;;;;;;;10.48;100.00;102124.59;4968045;28;20307;-75
2022/10/31 05:53:52;;;;;;;78.67;31.37;;;;;;;10.51;100.00;102128.16;4953122;28;20299;-75
2022/10/31 05:56:20;;;;;;;70.27;30.87;;;;;;;10.56;100.00;102136.03;4969153;28;20200;-75
2022/10/31 05:58:46;;;;;;;77.43;32.40;;;;;;;10.58;100.00;102142.97;4966338;28;20262;-75
2022/10/31 06:01:12;;;;;;;70.27;28.50;;;;;;;10.62;100.00;102149.09;4969051;28;20199;-75
2022/10/31 06:03:38;;;;;;;77.83;31.40;;;;;;;10.66;100.00;102145.84;4968828;28;20578;-75
2022/10/31 06:06:06;;;;;;;75.60;32.00;;;;;;;10.69;100.00;102146.81;4968177;28;20188;-77
2022/10/31 06:08:36;;;;;;;68.17;31.83;;;;;;;10.75;100.00;102146.19;4969128;28;20196;-77
2022/10/31 06:11:05;;;;;;;75.07;32.63;;;;;;;10.80;100.00;102144.69;4966968;28;20327;-78
2022/10/31 06:13:49;;;;;;;72.87;34.97;;;;;;;10.89;100.00;102143.38;4966764;28;20227;-75
2022/10/31 06:16:22;;;;;;;72.17;35.80;;;;;;;10.94;100.00;102143.53;4969850;28;20227;-76
2022/10/31 06:18:49;;;;;;;69.10;34.67;;;;;;;10.98;100.00;102147.97;4972287;28;20189;-76
2022/10/31 06:21:14;;;;;;;76.07;35.03;;;;;;;11.06;100.00;102151.72;4970804;28;21122;-76
2022/10/31 06:23:40;;;;;;;70.07;34.30;;;;;;;11.12;100.00;102145.13;4969933;28;20216;-75
2022/10/31 06:26:24;;;;;;;67.47;35.63;;;;;;;11.22;100.00;102147.22;4968724;28;20203;-76
2022/10/31 06:28:49;;;;;;;72.83;38.33;;;;;;;11.34;100.00;102147.66;4972192;28;20197;-75
2022/10/31 06:31:38;;;;;;;83.73;39.23;;;;;;;11.66;100.00;102151.44;4968499;28;20663;-76
2022/10/31 06:34:04;;;;;;;87.37;42.70;;;;;;;11.75;100.00;102160.34;4972483;28;20226;-76
2022/10/31 06:36:29;;;;;;;86.07;41.63;;;;;;;11.82;100.00;102167.44;4953119;28;20310;-75
2022/10/31 06:38:54;;;;;;;84.93;39.93;;;;;;;12.00;100.00;102169.78;4952925;28;20294;-76
2022/10/31 06:41:23;;;;;;;100.60;40.80;;;;;;;12.16;100.00;102175.50;4968294;28;20663;-76
2022/10/31 06:43:49;;;;;;;97.53;39.27;;;;;;;12.17;100.00;102172.09;4962652;28;20209;-76
2022/10/31 06:46:32;;;;;;;107.77;41.03;;;;;;;12.26;100.00;102174.97;4971801;28;20275;-76
2022/10/31 06:49:06;;;;;;;102.67;42.47;;;;;;;12.29;100.00;102172.53;4964032;28;20192;-76
2022/10/31 06:51:38;;;;;;;98.60;40.90;;;;;;;12.30;100.00;102174.25;4979634;28;20197;-76
2022/10/31 06:54:03;;;;;;;114.73;44.17;;;;;;;12.38;100.00;102174.50;4974050;28;20262;-76
2022/10/31 06:56:30;;;;;;;116.43;43.97;;;;;;;12.42;100.00;102192.66;4954509;28;20192;-76
2022/10/31 06:58:57;;;;;;;119.20;46.73;;;;;;;12.46;100.00;102191.94;4972033;28;20223;-76
2022/10/31 07:01:48;;;;;;;121.60;47.53;;;;;;;12.48;100.00;102191.97;4968406;28;20201;-76
2022/10/31 07:04:13;;;;;;;124.50;49.27;;;;;;;12.52;100.00;102193.81;4972029;28;20566;-75
2022/10/31 07:06:39;;;;;;;120.00;50.53;;;;;;;12.57;100.00;102189.72;4967575;28;20250;-75
2022/10/31 07:09:05;;;;;;;126.47;51.40;;;;;;;12.63;100.00;102195.06;4972098;28;20267;-75
2022/10/31 07:11:30;;;;;;;112.33;51.33;;;;;;;12.67;100.00;102202.91;4970451;28;20216;-75
2022/10/31 07:13:57;;;;;;;109.47;52.23;;;;;;;12.73;100.00;102202.25;4970096;28;20303;-74
2022/10/31 07:16:22;;;;;;;114.33;53.20;;;;;;;12.75;100.00;102196.34;4971585;28;20296;-75
2022/10/31 07:18:48;;;;;;;103.50;49.67;;;;;;;12.76;100.00;102200.66;4978710;28;20594;-75
2022/10/31 07:21:13;;;;;;;108.07;49.83;;;;;;;12.80;100.00;102199.91;4971733;28;20223;-75
2022/10/31 07:23:39;;;;;;;106.80;51.83;;;;;;;12.85;100.00;102200.94;4965671;28;20701;-75
2022/10/31 07:26:34;;;;;;;103.97;49.10;;;;;;;12.93;100.00;102201.19;4962535;28;20564;-75
2022/10/31 07:29:01;;;;;;;104.13;49.87;;;;;;;12.99;100.00;102206.56;4969410;28;20191;-75
2022/10/31 07:31:27;;;;;;;101.47;49.57;;;;;;;13.03;100.00;102205.81;4971503;28;20258;-75
2022/10/31 07:33:56;;;;;;;104.13;47.50;;;;;;;13.08;100.00;102208.53;4975599;28;20243;-75
2022/10/31 07:36:28;;;;;;;98.93;48.43;;;;;;;13.11;100.00;102206.06;4972446;28;20689;-76
2022/10/31 07:38:58;;;;;;;96.60;46.70;;;;;;;13.13;100.00;102207.88;4969638;28;20188;-76
2022/10/31 07:41:24;;;;;;;97.33;47.23;;;;;;;13.15;100.00;102206.19;4971590;28;20184;-76
2022/10/31 07:43:50;;;;;;;96.37;47.50;;;;;;;13.19;100.00;102208.06;4968526;28;20209;-76
2022/10/31 07:46:15;;;;;;;90.80;46.43;;;;;;;13.20;100.00;102207.22;4952685;28;20221;-76
2022/10/31 07:48:59;;;;;;;105.57;47.43;;;;;;;13.19;100.00;102222.59;4967281;28;20262;-76
2022/10/31 07:51:43;;;;;;;97.40;46.57;;;;;;;13.18;100.00;102219.16;4968171;28;20188;-76
2022/10/31 07:54:27;;;;;;;104.50;47.70;;;;;;;13.16;100.00;102227.66;4970367;28;20203;-76
2022/10/31 07:56:53;;;;;;;106.57;48.03;;;;;;;13.18;100.00;102234.59;4970080;28;20189;-74
2022/10/31 07:59:18;;;;;;;103.40;47.83;;;;;;;13.20;100.00;102224.34;4969617;28;20546;-75
2022/10/31 08:01:44;;;;;;;92.00;45.23;;;;;;;13.21;100.00;102232.09;4969409;28;20189;-75
2022/10/31 08:04:32;;;;;;;95.73;44.70;;;;;;;13.25;100.00;102233.94;4966870;28;20235;-75
2022/10/31 08:07:16;;;;;;;95.70;44.53;;;;;;;13.28;100.00;102233.16;4970614;28;20231;-76
2022/10/31 08:09:47;;;;;;;90.63;42.43;;;;;;;13.29;100.00;102229.75;4959967;28;20624;-77
2022/10/31 08:12:19;;;;;;;87.93;41.87;;;;;;;13.28;100.00;102228.03;4970342;28;20219;-75
2022/10/31 08:14:44;;;;;;;89.83;41.83;;;;;;;13.35;100.00;102229.97;4970381;28;20317;-75
2022/10/31 08:17:10;;;;;;;84.03;41.33;;;;;;;13.35;100.00;102222.25;4969948;28;20224;-75
2022/10/31 08:19:45;;;;;;;84.87;40.93;;;;;;;13.37;100.00;102231.75;4967579;28;20187;-74
2022/10/31 08:22:13;;;;;;;85.27;39.90;;;;;;;13.47;100.00;102226.06;4969855;28;20727;-75
2022/10/31 08:24:39;;;;;;;79.20;39.83;;;;;;;13.55;100.00;102224.59;4953916;28;20283;-76
2022/10/31 08:27:04;;;;;;;80.40;38.90;;;;;;;13.58;100.00;102227.25;4969605;28;20200;-75
2022/10/31 08:29:31;;;;;;;77.80;39.40;;;;;;;13.59;100.00;102236.72;4970053;28;20221;-75
2022/10/31 08:31:58;;;;;;;81.63;39.67;;;;;;;13.71;100.00;102229.34;4969863;28;20192;-75
2022/10/31 08:34:42;;;;;;;75.67;38.97;;;;;;;13.73;100.00;102229.41;4968144;28;20251;-76
2022/10/31 08:37:26;;;;;;;73.83;37.27;;;;;;;13.69;100.00;102232.72;4964100;28;20259;-75
2022/10/31 08:39:53;;;;;;;70.17;35.00;;;;;;;13.68;100.00;102229.25;4968596;28;20211;-76
2022/10/31 08:42:20;;;;;;;68.37;34.63;;;;;;;13.72;100.00;102228.50;4966912;28;20970;-75
2022/10/31 08:44:46;;;;;;;65.37;34.67;;;;;;;13.72;100.00;102231.09;4969609;28;20180;-75
2022/10/31 08:47:12;;;;;;;68.27;34.37;;;;;;;13.75;100.00;102227.72;4965291;28;20189;-76
2022/10/31 08:49:37;;;;;;;68.23;34.07;;;;;;;13.76;100.00;102234.66;4983157;28;20205;-75
2022/10/31 08:52:03;;;;;;;66.23;34.07;;;;;;;13.82;100.00;102233.13;4969020;28;20218;-76
2022/10/31 08:54:33;;;;;;;64.33;34.87;;;;;;;13.89;100.00;102231.56;4968465;28;20226;-76
2022/10/31 08:57:17;;;;;;;57.40;31.10;;;;;;;13.95;100.00;102231.75;4963730;28;20195;-76
2022/10/31 08:59:44;;;;;;;59.30;30.40;;;;;;;14.01;100.00;102219.94;4975992;28;20558;-75
2022/10/31 09:02:23;;;;;;;62.47;29.20;;;;;;;14.14;100.00;102215.97;4962809;28;20210;-75
2022/10/31 09:04:52;;;;;;;54.57;24.93;;;;;;;14.21;100.00;102215.31;4965779;28;20283;-76
2022/10/31 09:07:18;;;;;;;54.40;25.87;;;;;;;14.02;100.00;102226.81;4968849;28;20279;-75
2022/10/31 09:09:43;;;;;;;54.40;26.30;;;;;;;14.04;100.00;102240.59;4967438;28;20232;-76
2022/10/31 09:12:09;;;;;;;63.90;29.80;;;;;;;14.01;100.00;102231.91;4969316;28;20220;-75
2022/10/31 09:15:07;;;;;;;58.33;27.20;;;;;;;14.07;100.00;102217.50;4968420;28;20620;-76
2022/10/31 09:17:38;;;;;;;56.57;26.20;;;;;;;14.12;100.00;102215.94;4966105;28;20185;-77
2022/10/31 09:20:28;;;;;;;52.20;25.37;;;;;;;14.23;100.00;102205.94;4968617;28;20200;-74
2022/10/31 09:22:59;;;;;;;57.97;25.20;;;;;;;14.29;100.00;102211.25;4965933;28;20219;-76
2022/10/31 09:25:26;;;;;;;54.17;25.33;;;;;;;14.32;100.00;102213.91;4968016;28;20267;-76
2022/10/31 09:28:13;;;;;;;48.63;25.43;;;;;;;14.34;100.00;102210.56;4978821;28;20196;-77
2022/10/31 09:30:39;;;;;;;49.93;25.37;;;;;;;14.29;100.00;102211.25;4965353;28;20196;-76
2022/10/31 09:33:08;;;;;;;49.20;24.47;;;;;;;14.20;100.00;102204.16;4964506;28;20915;-76
2022/10/31 09:35:34;;;;;;;55.20;24.27;;;;;;;14.21;100.00;102205.91;4963972;28;20300;-75
2022/10/31 09:38:05;;;;;;;48.67;25.37;;;;;;;14.29;100.00;102204.41;4951883;28;20245;-76
2022/10/31 09:40:50;;;;;;;50.43;26.00;;;;;;;14.34;100.00;102212.25;4981780;28;20427;-76
2022/10/31 09:43:35;;;;;;;45.00;24.13;;;;;;;14.29;100.00;102206.09;4964556;28;20216;-76
2022/10/31 09:46:07;;;;;;;42.63;23.07;;;;;;;14.22;100.00;102212.78;4966213;28;20646;-76
2022/10/31 09:49:18;;;;;;;42.20;23.20;;;;;;;14.25;100.00;102210.31;4945752;28;20212;-75
2022/10/31 09:52:00;;;;;;;45.07;25.63;;;;;;;14.21;100.00;102215.31;4969492;28;20192;-76
2022/10/31 09:54:43;;;;;;;51.10;27.67;;;;;;;14.16;100.00;102212.59;4896497;28;20303;-76
2022/10/31 09:57:15;;;;;;;47.80;26.47;;;;;;;14.14;100.00;102218.53;4977872;28;20962;-75
2022/10/31 09:59:47;;;;;;;46.37;25.33;;;;;;;14.17;100.00;102219.50;4973271;28;20700;-76
2022/10/31 10:02:26;;;;;;;46.13;24.30;;;;;;;14.12;100.00;102217.63;4973201;28;20297;-76
2022/10/31 10:05:11;;;;;;;38.90;23.83;;;;;;;14.16;100.00;102222.03;4973408;28;20259;-75
2022/10/31 10:08:00;;;;;;;40.53;22.67;;;;;;;14.20;100.00;102214.47;4967048;28;20278;-75
2022/10/31 10:11:22;;;;;;;45.63;22.83;;;;;;;14.29;100.00;102230.19;4954016;28;20205;-75
2022/10/31 10:14:33;;;;;;;38.57;22.50;;;;;;;14.17;100.00;102236.66;4971919;28;20247;-76
2022/10/31 10:17:04;;;;;;;33.53;19.60;;;;;;;14.09;100.00;102236.44;4971506;28;20217;-76
2022/10/31 10:19:48;;;;;;;38.83;22.63;;;;;;;14.11;100.00;102231.34;4970040;28;20543;-76
2022/10/31 10:22:31;;;;;;;36.13;20.80;;;;;;;14.18;100.00;102236.69;4972461;28;20220;-77
2022/10/31 10:25:25;;;;;;;32.77;20.83;;;;;;;14.35;100.00;102229.44;4973438;28;20189;-76
2022/10/31 10:28:00;;;;;;;38.60;21.43;;;;;;;14.44;100.00;102229.69;4971372;28;20204;-76
2022/10/31 10:30:45;;;;;;;38.70;23.00;;;;;;;14.47;100.00;102229.78;4950800;28;20216;-77
2022/10/31 10:33:14;;;;;;;36.27;22.03;;;;;;;14.42;100.00;102223.63;4972651;28;20307;-77
2022/10/31 10:36:03;;;;;;;39.10;24.00;;;;;;;14.41;100.00;102225.31;4967638;28;20705;-76
2022/10/31 10:38:32;;;;;;;36.93;23.80;;;;;;;14.45;100.00;102223.72;4966155;28;20212;-77
2022/10/31 10:41:01;;;;;;;35.53;22.00;;;;;;;14.47;100.00;102216.88;4973608;28;20260;-76
2022/10/31 10:43:36;;;;;;;37.77;22.43;;;;;;;14.50;100.00;102222.13;4971459;28;20219;-76
2022/10/31 10:49:12;;;;;;;36.93;23.43;;;;;;;14.57;100.00;102208.53;4972192;28;20269;-75
2022/10/31 10:51:50;;;;;;;35.23;21.90;;;;;;;14.55;99.68;102210.22;4964002;28;20201;-76
2022/10/31 10:54:24;;;;;;;36.60;24.03;;;;;;;14.60;99.63;102211.22;4954108;28;20215;-76
2022/10/31 10:57:12;;;;;;;43.80;23.97;;;;;;;14.62;100.00;102205.25;4970411;28;20187;-77
2022/10/31 10:59:37;;;;;;;38.77;22.83;;;;;;;14.64;99.50;102202.72;4967639;28;20212;-77
2022/10/31 11:02:08;;;;;;;32.77;21.83;;;;;;;14.69;98.87;102201.13;4970779;28;20284;-77
2022/10/31 11:04:35;;;;;;;35.60;21.93;;;;;;;14.74;98.30;102197.81;4971883;28;20545;-76
2022/10/31 11:07:09;;;;;;;34.10;21.97;;;;;;;14.73;98.67;102202.94;4972539;28;20267;-76
2022/10/31 11:09:36;;;;;;;34.57;21.70;;;;;;;14.70;98.07;102202.88;4970643;28;20287;-76
2022/10/31 11:12:10;;;;;;;30.67;20.47;;;;;;;14.67;98.38;102206.25;4972660;28;20196;-76
2022/10/31 11:15:03;;;;;;;34.90;21.00;;;;;;;14.69;97.72;102209.72;4969347;28;20206;-76
2022/10/31 11:17:36;;;;;;;30.03;20.10;;;;;;;14.74;98.33;102204.69;4961144;28;20910;-76
2022/10/31 11:20:05;;;;;;;31.43;21.33;;;;;;;14.73;98.03;102210.69;4971434;28;20296;-76
2022/10/31 11:22:30;;;;;;;32.23;20.43;;;;;;;14.75;97.39;102209.88;4968588;28;20222;-76
2022/10/31 11:24:56;;;;;;;30.47;19.77;;;;;;;14.71;97.64;102208.06;4971486;28;20193;-76
2022/10/31 11:27:24;;;;;;;30.97;20.33;;;;;;;14.77;97.16;102190.16;4971516;28;20656;-76
2022/10/31 11:29:50;;;;;;;32.07;19.47;;;;;;;14.80;96.86;102189.34;4970797;28;20909;-76
2022/10/31 11:32:24;;;;;;;27.93;17.77;;;;;;;14.79;96.62;102180.75;4971430;28;20304;-76
2022/10/31 11:35:02;;;;;;;32.23;19.67;;;;;;;14.86;96.08;102184.31;4970299;28;20219;-76